sensor_id;sensor_type;location;lat;lon;timestamp;P1;durP1;ratioP1;P2;durP2;ratioP2
1020;SDS011;499;42.648;23.270;2024-02-23T00:00:52;12.73;;;11.43;;
1020;SDS011;499;42.648;23.270;2024-02-23T00:03:36;15.70;;;11.43;;
1020;SDS011;499;42.648;23.270;2024-02-23T00:06:53;14.73;;;13.07;;
1020;SDS011;499;42.648;23.270;2024-02-23T00:09:52;14.47;;;12.30;;
1020;SDS011;499;42.648;23.270;2024-02-23T00:12:49;13.33;;;11.93;;
1020;SDS011;499;42.648;23.270;2024-02-23T00:16:16;13.03;;;10.73;;
1020;SDS011;499;42.648;23.270;2024-02-23T00:19:07;23.80;;;16.70;;
1020;SDS011;499;42.648;23.270;2024-02-23T00:21:51;26.27;;;15.13;;
1020;SDS011;499;42.648;23.270;2024-02-23T00:24:28;21.87;;;15.70;;
1020;SDS011;499;42.648;23.270;2024-02-23T00:27:14;33.10;;;18.63;;
1020;SDS011;499;42.648;23.270;2024-02-23T00:30:10;24.93;;;14.80;;
1020;SDS011;499;42.648;23.270;2024-02-23T00:33:03;16.83;;;12.53;;
1020;SDS011;499;42.648;23.270;2024-02-23T00:36:03;20.87;;;14.07;;
1020;SDS011;499;42.648;23.270;2024-02-23T00:39:07;17.10;;;13.37;;
1020;SDS011;499;42.648;23.270;2024-02-23T00:41:55;20.63;;;13.67;;
1020;SDS011;499;42.648;23.270;2024-02-23T00:44:34;12.93;;;11.60;;
1020;SDS011;499;42.648;23.270;2024-02-23T00:47:44;15.33;;;12.83;;
1020;SDS011;499;42.648;23.270;2024-02-23T00:51:08;20.67;;;14.93;;
1020;SDS011;499;42.648;23.270;2024-02-23T00:54:44;19.20;;;13.13;;
1020;SDS011;499;42.648;23.270;2024-02-23T00:57:42;15.10;;;12.23;;
1020;SDS011;499;42.648;23.270;2024-02-23T01:00:36;20.07;;;14.50;;
1020;SDS011;499;42.648;23.270;2024-02-23T01:03:19;20.77;;;15.93;;
1020;SDS011;499;42.648;23.270;2024-02-23T01:06:30;21.47;;;17.53;;
1020;SDS011;499;42.648;23.270;2024-02-23T01:09:47;27.17;;;20.00;;
1020;SDS011;499;42.648;23.270;2024-02-23T01:12:46;15.13;;;12.33;;
1020;SDS011;499;42.648;23.270;2024-02-23T01:15:46;18.20;;;12.30;;
1020;SDS011;499;42.648;23.270;2024-02-23T01:19:36;13.20;;;9.90;;
1020;SDS011;499;42.648;23.270;2024-02-23T01:22:33;17.50;;;14.27;;
1020;SDS011;499;42.648;23.270;2024-02-23T01:29:33;14.40;;;9.20;;
1020;SDS011;499;42.648;23.270;2024-02-23T01:32:06;12.97;;;10.53;;
1020;SDS011;499;42.648;23.270;2024-02-23T01:34:53;11.07;;;9.60;;
1020;SDS011;499;42.648;23.270;2024-02-23T01:37:48;27.83;;;16.40;;
1020;SDS011;499;42.648;23.270;2024-02-23T01:41:04;19.80;;;11.60;;
1020;SDS011;499;42.648;23.270;2024-02-23T01:44:16;24.23;;;15.83;;
1020;SDS011;499;42.648;23.270;2024-02-23T01:47:23;14.53;;;10.33;;
1020;SDS011;499;42.648;23.270;2024-02-23T02:02:01;11.53;;;8.20;;
1020;SDS011;499;42.648;23.270;2024-02-23T02:05:05;16.87;;;11.50;;
1020;SDS011;499;42.648;23.270;2024-02-23T02:07:55;18.37;;;10.80;;
1020;SDS011;499;42.648;23.270;2024-02-23T02:10:56;11.97;;;10.00;;
1020;SDS011;499;42.648;23.270;2024-02-23T02:14:11;12.50;;;7.00;;
1020;SDS011;499;42.648;23.270;2024-02-23T02:17:16;10.90;;;9.07;;
1020;SDS011;499;42.648;23.270;2024-02-23T02:20:17;14.27;;;9.77;;
1020;SDS011;499;42.648;23.270;2024-02-23T02:23:42;12.27;;;9.47;;
1020;SDS011;499;42.648;23.270;2024-02-23T02:27:15;11.97;;;10.47;;
1020;SDS011;499;42.648;23.270;2024-02-23T02:30:19;10.93;;;9.10;;
1020;SDS011;499;42.648;23.270;2024-02-23T02:33:44;13.57;;;8.90;;
1020;SDS011;499;42.648;23.270;2024-02-23T02:37:04;11.20;;;9.77;;
1020;SDS011;499;42.648;23.270;2024-02-23T02:40:09;10.33;;;9.23;;
1020;SDS011;499;42.648;23.270;2024-02-23T02:43:12;10.17;;;8.70;;
1020;SDS011;499;42.648;23.270;2024-02-23T02:46:36;14.23;;;10.47;;
1020;SDS011;499;42.648;23.270;2024-02-23T02:50:08;11.27;;;8.53;;
1020;SDS011;499;42.648;23.270;2024-02-23T02:53:08;11.60;;;10.17;;
1020;SDS011;499;42.648;23.270;2024-02-23T02:56:05;12.73;;;10.23;;
1020;SDS011;499;42.648;23.270;2024-02-23T02:58:57;10.80;;;9.67;;
1020;SDS011;499;42.648;23.270;2024-02-23T03:04:48;11.57;;;8.53;;
1020;SDS011;499;42.648;23.270;2024-02-23T03:15:23;9.97;;;8.83;;
1020;SDS011;499;42.648;23.270;2024-02-23T03:18:36;11.80;;;9.80;;
1020;SDS011;499;42.648;23.270;2024-02-23T03:21:42;11.93;;;9.10;;
1020;SDS011;499;42.648;23.270;2024-02-23T03:24:41;12.07;;;9.70;;
1020;SDS011;499;42.648;23.270;2024-02-23T03:27:40;12.07;;;9.67;;
1020;SDS011;499;42.648;23.270;2024-02-23T03:30:55;12.50;;;9.67;;
1020;SDS011;499;42.648;23.270;2024-02-23T03:33:30;8.83;;;7.20;;
1020;SDS011;499;42.648;23.270;2024-02-23T03:36:19;10.80;;;8.97;;
1020;SDS011;499;42.648;23.270;2024-02-23T03:39:06;9.30;;;8.30;;
1020;SDS011;499;42.648;23.270;2024-02-23T03:41:47;10.07;;;8.30;;
1020;SDS011;499;42.648;23.270;2024-02-23T03:44:31;14.33;;;9.93;;
1020;SDS011;499;42.648;23.270;2024-02-23T03:51:18;32.47;;;28.80;;
1020;SDS011;499;42.648;23.270;2024-02-23T03:54:11;29.30;;;24.20;;
1020;SDS011;499;42.648;23.270;2024-02-23T03:57:02;20.10;;;16.63;;
1020;SDS011;499;42.648;23.270;2024-02-23T04:00:07;16.67;;;14.87;;
1020;SDS011;499;42.648;23.270;2024-02-23T04:02:55;15.50;;;13.90;;
1020;SDS011;499;42.648;23.270;2024-02-23T04:05:37;13.57;;;12.17;;
1020;SDS011;499;42.648;23.270;2024-02-23T04:08:29;11.50;;;9.00;;
1020;SDS011;499;42.648;23.270;2024-02-23T04:11:16;15.60;;;12.80;;
1020;SDS011;499;42.648;23.270;2024-02-23T04:13:58;21.73;;;16.90;;
1020;SDS011;499;42.648;23.270;2024-02-23T04:16:41;14.00;;;10.77;;
1020;SDS011;499;42.648;23.270;2024-02-23T04:19:36;16.60;;;14.37;;
1020;SDS011;499;42.648;23.270;2024-02-23T04:22:21;15.13;;;12.30;;
1020;SDS011;499;42.648;23.270;2024-02-23T04:25:09;12.23;;;10.13;;
1020;SDS011;499;42.648;23.270;2024-02-23T04:27:55;13.20;;;11.30;;
1020;SDS011;499;42.648;23.270;2024-02-23T04:30:42;20.77;;;14.23;;
1020;SDS011;499;42.648;23.270;2024-02-23T04:33:34;18.87;;;12.13;;
1020;SDS011;499;42.648;23.270;2024-02-23T04:36:22;15.37;;;12.77;;
1020;SDS011;499;42.648;23.270;2024-02-23T04:39:02;13.73;;;11.37;;
1020;SDS011;499;42.648;23.270;2024-02-23T04:41:54;14.53;;;12.40;;
1020;SDS011;499;42.648;23.270;2024-02-23T04:44:45;12.47;;;10.50;;
1020;SDS011;499;42.648;23.270;2024-02-23T04:47:34;12.73;;;10.37;;
1020;SDS011;499;42.648;23.270;2024-02-23T04:50:23;16.00;;;11.67;;
1020;SDS011;499;42.648;23.270;2024-02-23T04:53:23;16.40;;;12.57;;
1020;SDS011;499;42.648;23.270;2024-02-23T04:56:21;16.23;;;13.37;;
1020;SDS011;499;42.648;23.270;2024-02-23T04:59:16;12.63;;;10.27;;
1020;SDS011;499;42.648;23.270;2024-02-23T05:01:54;13.93;;;11.73;;
1020;SDS011;499;42.648;23.270;2024-02-23T05:04:46;15.73;;;11.07;;
1020;SDS011;499;42.648;23.270;2024-02-23T05:07:33;11.40;;;7.60;;
1020;SDS011;499;42.648;23.270;2024-02-23T05:10:36;10.00;;;8.40;;
1020;SDS011;499;42.648;23.270;2024-02-23T05:13:42;15.63;;;14.00;;
1020;SDS011;499;42.648;23.270;2024-02-23T05:16:39;12.20;;;10.47;;
1020;SDS011;499;42.648;23.270;2024-02-23T05:19:33;9.90;;;7.83;;
1020;SDS011;499;42.648;23.270;2024-02-23T05:22:22;12.40;;;9.90;;
1020;SDS011;499;42.648;23.270;2024-02-23T05:25:14;18.10;;;14.70;;
1020;SDS011;499;42.648;23.270;2024-02-23T05:28:04;21.50;;;19.20;;
1020;SDS011;499;42.648;23.270;2024-02-23T05:31:02;16.97;;;13.83;;
1020;SDS011;499;42.648;23.270;2024-02-23T05:33:52;24.63;;;18.50;;
1020;SDS011;499;42.648;23.270;2024-02-23T05:36:39;16.07;;;8.77;;
1020;SDS011;499;42.648;23.270;2024-02-23T05:39:26;12.03;;;10.70;;
1020;SDS011;499;42.648;23.270;2024-02-23T05:42:15;15.30;;;13.70;;
1020;SDS011;499;42.648;23.270;2024-02-23T05:45:12;19.07;;;14.70;;
1020;SDS011;499;42.648;23.270;2024-02-23T05:47:55;11.40;;;9.70;;
1020;SDS011;499;42.648;23.270;2024-02-23T05:50:42;16.50;;;14.70;;
1020;SDS011;499;42.648;23.270;2024-02-23T05:53:29;13.10;;;11.70;;
1020;SDS011;499;42.648;23.270;2024-02-23T05:56:26;12.27;;;10.97;;
1020;SDS011;499;42.648;23.270;2024-02-23T05:59:17;13.77;;;11.93;;
1020;SDS011;499;42.648;23.270;2024-02-23T06:02:02;15.80;;;11.87;;
1020;SDS011;499;42.648;23.270;2024-02-23T06:04:47;16.97;;;11.77;;
1020;SDS011;499;42.648;23.270;2024-02-23T06:07:35;14.90;;;12.27;;
1020;SDS011;499;42.648;23.270;2024-02-23T06:10:20;16.10;;;11.77;;
1020;SDS011;499;42.648;23.270;2024-02-23T06:13:27;12.80;;;10.93;;
1020;SDS011;499;42.648;23.270;2024-02-23T06:16:44;16.73;;;12.80;;
1020;SDS011;499;42.648;23.270;2024-02-23T06:19:45;17.80;;;12.80;;
1020;SDS011;499;42.648;23.270;2024-02-23T06:22:31;17.83;;;13.60;;
1020;SDS011;499;42.648;23.270;2024-02-23T06:25:36;17.73;;;15.13;;
1020;SDS011;499;42.648;23.270;2024-02-23T06:28:13;15.40;;;13.33;;
1020;SDS011;499;42.648;23.270;2024-02-23T06:30:57;14.83;;;12.90;;
1020;SDS011;499;42.648;23.270;2024-02-23T06:33:42;15.63;;;11.97;;
1020;SDS011;499;42.648;23.270;2024-02-23T06:36:32;14.73;;;10.80;;
1020;SDS011;499;42.648;23.270;2024-02-23T06:39:33;14.80;;;11.73;;
1020;SDS011;499;42.648;23.270;2024-02-23T06:42:27;13.63;;;11.80;;
1020;SDS011;499;42.648;23.270;2024-02-23T06:45:11;24.60;;;16.70;;
1020;SDS011;499;42.648;23.270;2024-02-23T06:47:58;24.20;;;12.83;;
1020;SDS011;499;42.648;23.270;2024-02-23T06:50:38;18.63;;;12.47;;
1020;SDS011;499;42.648;23.270;2024-02-23T06:53:21;19.20;;;13.40;;
1020;SDS011;499;42.648;23.270;2024-02-23T06:56:18;21.17;;;12.00;;
1020;SDS011;499;42.648;23.270;2024-02-23T06:59:02;16.13;;;11.27;;
1020;SDS011;499;42.648;23.270;2024-02-23T07:01:49;24.57;;;13.60;;
1020;SDS011;499;42.648;23.270;2024-02-23T07:04:32;16.93;;;12.10;;
1020;SDS011;499;42.648;23.270;2024-02-23T07:07:12;14.70;;;11.07;;
1020;SDS011;499;42.648;23.270;2024-02-23T07:09:50;23.37;;;16.27;;
1020;SDS011;499;42.648;23.270;2024-02-23T07:12:35;18.10;;;12.20;;
1020;SDS011;499;42.648;23.270;2024-02-23T07:15:21;13.37;;;11.33;;
1020;SDS011;499;42.648;23.270;2024-02-23T07:18:30;15.83;;;10.60;;
1020;SDS011;499;42.648;23.270;2024-02-23T07:21:44;11.40;;;9.47;;
1020;SDS011;499;42.648;23.270;2024-02-23T07:24:41;13.10;;;9.70;;
1020;SDS011;499;42.648;23.270;2024-02-23T07:27:41;12.93;;;10.10;;
1020;SDS011;499;42.648;23.270;2024-02-23T07:30:47;14.00;;;10.80;;
1020;SDS011;499;42.648;23.270;2024-02-23T07:33:38;13.03;;;10.20;;
1020;SDS011;499;42.648;23.270;2024-02-23T07:37:00;15.43;;;10.80;;
1020;SDS011;499;42.648;23.270;2024-02-23T07:39:50;12.40;;;10.27;;
1020;SDS011;499;42.648;23.270;2024-02-23T07:46:02;13.80;;;10.20;;
1020;SDS011;499;42.648;23.270;2024-02-23T07:48:55;14.83;;;10.50;;
1020;SDS011;499;42.648;23.270;2024-02-23T07:52:10;18.70;;;11.87;;
1020;SDS011;499;42.648;23.270;2024-02-23T07:55:02;12.93;;;10.20;;
1020;SDS011;499;42.648;23.270;2024-02-23T07:57:58;12.63;;;11.23;;
1020;SDS011;499;42.648;23.270;2024-02-23T08:01:19;15.80;;;10.97;;
1020;SDS011;499;42.648;23.270;2024-02-23T08:04:02;15.20;;;11.57;;
1020;SDS011;499;42.648;23.270;2024-02-23T08:06:58;12.77;;;11.00;;
1020;SDS011;499;42.648;23.270;2024-02-23T08:09:28;15.47;;;11.67;;
1020;SDS011;499;42.648;23.270;2024-02-23T08:12:01;17.00;;;11.90;;
1020;SDS011;499;42.648;23.270;2024-02-23T08:15:11;14.20;;;10.97;;
1020;SDS011;499;42.648;23.270;2024-02-23T08:17:48;12.63;;;10.20;;
1020;SDS011;499;42.648;23.270;2024-02-23T08:20:33;25.73;;;12.40;;
1020;SDS011;499;42.648;23.270;2024-02-23T08:24:06;16.67;;;11.60;;
1020;SDS011;499;42.648;23.270;2024-02-23T08:26:34;21.27;;;12.87;;
1020;SDS011;499;42.648;23.270;2024-02-23T08:29:03;13.23;;;10.17;;
1020;SDS011;499;42.648;23.270;2024-02-23T08:31:31;20.00;;;12.80;;
1020;SDS011;499;42.648;23.270;2024-02-23T08:37:43;16.60;;;12.03;;
1020;SDS011;499;42.648;23.270;2024-02-23T08:40:34;15.67;;;11.40;;
1020;SDS011;499;42.648;23.270;2024-02-23T08:43:13;18.20;;;12.13;;
1020;SDS011;499;42.648;23.270;2024-02-23T08:45:55;13.53;;;9.97;;
1020;SDS011;499;42.648;23.270;2024-02-23T08:48:42;14.50;;;11.00;;
1020;SDS011;499;42.648;23.270;2024-02-23T08:51:36;12.53;;;10.10;;
1020;SDS011;499;42.648;23.270;2024-02-23T08:54:25;13.43;;;10.20;;
1020;SDS011;499;42.648;23.270;2024-02-23T08:57:36;13.33;;;9.87;;
1020;SDS011;499;42.648;23.270;2024-02-23T09:00:06;14.10;;;9.47;;
1020;SDS011;499;42.648;23.270;2024-02-23T09:03:14;20.83;;;9.20;;
1020;SDS011;499;42.648;23.270;2024-02-23T09:09:52;11.93;;;8.77;;
1020;SDS011;499;42.648;23.270;2024-02-23T09:12:50;14.10;;;9.83;;
1020;SDS011;499;42.648;23.270;2024-02-23T09:26:08;8.80;;;6.50;;
1020;SDS011;499;42.648;23.270;2024-02-23T10:07:05;4.90;;;4.10;;
1020;SDS011;499;42.648;23.270;2024-02-23T10:09:59;6.53;;;4.07;;
1020;SDS011;499;42.648;23.270;2024-02-23T10:12:59;5.17;;;3.80;;
1020;SDS011;499;42.648;23.270;2024-02-23T10:16:29;11.03;;;8.17;;
1020;SDS011;499;42.648;23.270;2024-02-23T10:19:58;4.90;;;3.60;;
1020;SDS011;499;42.648;23.270;2024-02-23T10:26:46;4.47;;;3.57;;
1020;SDS011;499;42.648;23.270;2024-02-23T10:29:51;4.23;;;3.83;;
1020;SDS011;499;42.648;23.270;2024-02-23T10:32:30;4.17;;;3.10;;
1020;SDS011;499;42.648;23.270;2024-02-23T10:35:28;5.97;;;3.50;;
1020;SDS011;499;42.648;23.270;2024-02-23T10:38:17;3.97;;;3.03;;
1020;SDS011;499;42.648;23.270;2024-02-23T10:41:37;2.60;;;2.40;;
1020;SDS011;499;42.648;23.270;2024-02-23T10:44:41;3.87;;;2.83;;
1020;SDS011;499;42.648;23.270;2024-02-23T10:47:48;3.30;;;2.90;;
1020;SDS011;499;42.648;23.270;2024-02-23T11:00:56;3.57;;;2.50;;
1020;SDS011;499;42.648;23.270;2024-02-23T11:03:51;3.63;;;2.73;;
1020;SDS011;499;42.648;23.270;2024-02-23T11:07:12;3.43;;;2.60;;
1020;SDS011;499;42.648;23.270;2024-02-23T11:10:08;2.70;;;2.30;;
1020;SDS011;499;42.648;23.270;2024-02-23T11:13:15;2.30;;;1.87;;
1020;SDS011;499;42.648;23.270;2024-02-23T11:16:00;3.13;;;2.50;;
1020;SDS011;499;42.648;23.270;2024-02-23T11:19:41;3.97;;;2.27;;
1020;SDS011;499;42.648;23.270;2024-02-23T11:22:57;2.67;;;1.80;;
1020;SDS011;499;42.648;23.270;2024-02-23T11:26:07;4.37;;;3.00;;
1020;SDS011;499;42.648;23.270;2024-02-23T11:32:34;3.53;;;2.43;;
1020;SDS011;499;42.648;23.270;2024-02-23T11:35:34;2.83;;;2.53;;
1020;SDS011;499;42.648;23.270;2024-02-23T11:42:34;3.63;;;2.10;;
1020;SDS011;499;42.648;23.270;2024-02-23T11:45:42;3.27;;;2.13;;
1020;SDS011;499;42.648;23.270;2024-02-23T11:48:39;2.90;;;2.17;;
1020;SDS011;499;42.648;23.270;2024-02-23T11:55:07;2.30;;;1.97;;
1020;SDS011;499;42.648;23.270;2024-02-23T12:23:10;3.20;;;2.27;;
1020;SDS011;499;42.648;23.270;2024-02-23T12:33:08;3.23;;;2.27;;
1020;SDS011;499;42.648;23.270;2024-02-23T12:36:12;3.10;;;2.27;;
1020;SDS011;499;42.648;23.270;2024-02-23T12:39:15;3.23;;;2.20;;
1020;SDS011;499;42.648;23.270;2024-02-23T12:42:07;3.40;;;2.43;;
1020;SDS011;499;42.648;23.270;2024-02-23T12:45:10;3.17;;;1.80;;
1020;SDS011;499;42.648;23.270;2024-02-23T12:48:07;3.40;;;2.43;;
1020;SDS011;499;42.648;23.270;2024-02-23T12:51:00;2.67;;;1.87;;
1020;SDS011;499;42.648;23.270;2024-02-23T12:57:29;2.10;;;1.90;;
1020;SDS011;499;42.648;23.270;2024-02-23T13:03:58;2.67;;;2.00;;
1020;SDS011;499;42.648;23.270;2024-02-23T13:06:59;3.10;;;2.43;;
1020;SDS011;499;42.648;23.270;2024-02-23T13:09:36;2.97;;;2.30;;
1020;SDS011;499;42.648;23.270;2024-02-23T13:12:36;2.87;;;2.40;;
1020;SDS011;499;42.648;23.270;2024-02-23T13:15:23;4.53;;;2.70;;
1020;SDS011;499;42.648;23.270;2024-02-23T13:18:29;4.20;;;2.83;;
1020;SDS011;499;42.648;23.270;2024-02-23T13:21:44;4.97;;;2.87;;
1020;SDS011;499;42.648;23.270;2024-02-23T13:35:22;3.43;;;2.30;;
1020;SDS011;499;42.648;23.270;2024-02-23T13:38:35;3.27;;;2.50;;
1020;SDS011;499;42.648;23.270;2024-02-23T13:41:30;3.07;;;2.50;;
1020;SDS011;499;42.648;23.270;2024-02-23T13:44:47;3.53;;;2.20;;
1020;SDS011;499;42.648;23.270;2024-02-23T13:48:00;2.93;;;2.10;;
1020;SDS011;499;42.648;23.270;2024-02-23T13:51:02;3.00;;;2.03;;
1020;SDS011;499;42.648;23.270;2024-02-23T13:54:16;2.90;;;2.20;;
1020;SDS011;499;42.648;23.270;2024-02-23T13:57:07;3.67;;;3.03;;
1020;SDS011;499;42.648;23.270;2024-02-23T13:59:40;3.73;;;2.70;;
1020;SDS011;499;42.648;23.270;2024-02-23T14:02:09;2.43;;;1.87;;
1020;SDS011;499;42.648;23.270;2024-02-23T14:05:00;2.47;;;2.10;;
1020;SDS011;499;42.648;23.270;2024-02-23T14:07:33;3.13;;;1.70;;
1020;SDS011;499;42.648;23.270;2024-02-23T14:10:00;2.70;;;2.23;;
1020;SDS011;499;42.648;23.270;2024-02-23T14:12:28;4.20;;;2.80;;
1020;SDS011;499;42.648;23.270;2024-02-23T14:14:55;2.63;;;2.30;;
1020;SDS011;499;42.648;23.270;2024-02-23T14:17:23;3.73;;;2.27;;
1020;SDS011;499;42.648;23.270;2024-02-23T14:20:18;2.97;;;2.67;;
1020;SDS011;499;42.648;23.270;2024-02-23T14:27:05;4.70;;;2.87;;
1020;SDS011;499;42.648;23.270;2024-02-23T14:30:11;4.97;;;3.60;;
1020;SDS011;499;42.648;23.270;2024-02-23T14:33:31;3.20;;;2.17;;
1020;SDS011;499;42.648;23.270;2024-02-23T14:36:17;3.43;;;2.73;;
1020;SDS011;499;42.648;23.270;2024-02-23T14:40:21;3.30;;;3.05;;
1020;SDS011;499;42.648;23.270;2024-02-23T14:43:44;5.10;;;3.70;;
1020;SDS011;499;42.648;23.270;2024-02-23T14:46:41;4.17;;;2.93;;
1020;SDS011;499;42.648;23.270;2024-02-23T14:49:48;2.20;;;2.00;;
1020;SDS011;499;42.648;23.270;2024-02-23T14:52:55;4.27;;;3.20;;
1020;SDS011;499;42.648;23.270;2024-02-23T14:56:06;8.10;;;3.90;;
1020;SDS011;499;42.648;23.270;2024-02-23T14:59:15;2.90;;;2.43;;
1020;SDS011;499;42.648;23.270;2024-02-23T15:02:18;3.43;;;2.73;;
1020;SDS011;499;42.648;23.270;2024-02-23T15:05:38;3.17;;;2.67;;
1020;SDS011;499;42.648;23.270;2024-02-23T15:08:52;3.50;;;2.27;;
1020;SDS011;499;42.648;23.270;2024-02-23T15:12:07;2.83;;;2.10;;
1020;SDS011;499;42.648;23.270;2024-02-23T15:14:51;4.90;;;3.33;;
1020;SDS011;499;42.648;23.270;2024-02-23T15:17:59;3.43;;;2.87;;
1020;SDS011;499;42.648;23.270;2024-02-23T15:20:48;3.20;;;2.30;;
1020;SDS011;499;42.648;23.270;2024-02-23T15:23:40;4.50;;;2.80;;
1020;SDS011;499;42.648;23.270;2024-02-23T15:26:29;3.57;;;2.90;;
1020;SDS011;499;42.648;23.270;2024-02-23T15:32:48;5.07;;;3.20;;
1020;SDS011;499;42.648;23.270;2024-02-23T15:35:43;3.00;;;2.70;;
1020;SDS011;499;42.648;23.270;2024-02-23T15:38:31;3.50;;;2.90;;
1020;SDS011;499;42.648;23.270;2024-02-23T15:41:41;3.50;;;2.97;;
1020;SDS011;499;42.648;23.270;2024-02-23T15:44:29;3.47;;;3.00;;
1020;SDS011;499;42.648;23.270;2024-02-23T15:50:54;5.83;;;4.27;;
1020;SDS011;499;42.648;23.270;2024-02-23T15:53:46;4.07;;;3.20;;
1020;SDS011;499;42.648;23.270;2024-02-23T15:56:57;5.57;;;3.87;;
1020;SDS011;499;42.648;23.270;2024-02-23T16:00:13;4.33;;;3.60;;
1020;SDS011;499;42.648;23.270;2024-02-23T16:03:03;3.80;;;3.17;;
1020;SDS011;499;42.648;23.270;2024-02-23T16:06:04;5.40;;;4.13;;
1020;SDS011;499;42.648;23.270;2024-02-23T16:09:00;5.20;;;4.50;;
1020;SDS011;499;42.648;23.270;2024-02-23T16:11:52;5.87;;;5.00;;
1020;SDS011;499;42.648;23.270;2024-02-23T16:14:37;11.13;;;5.00;;
1020;SDS011;499;42.648;23.270;2024-02-23T16:17:28;7.13;;;4.70;;
1020;SDS011;499;42.648;23.270;2024-02-23T16:20:11;4.80;;;3.70;;
1020;SDS011;499;42.648;23.270;2024-02-23T16:26:37;5.73;;;3.93;;
1020;SDS011;499;42.648;23.270;2024-02-23T16:29:36;7.23;;;4.60;;
1020;SDS011;499;42.648;23.270;2024-02-23T16:32:52;5.27;;;4.77;;
1020;SDS011;499;42.648;23.270;2024-02-23T16:35:49;6.00;;;4.57;;
1020;SDS011;499;42.648;23.270;2024-02-23T16:38:36;5.40;;;4.03;;
1020;SDS011;499;42.648;23.270;2024-02-23T16:41:23;4.50;;;4.00;;
1020;SDS011;499;42.648;23.270;2024-02-23T16:44:29;8.63;;;3.83;;
1020;SDS011;499;42.648;23.270;2024-02-23T16:47:16;4.93;;;4.00;;
1020;SDS011;499;42.648;23.270;2024-02-23T16:50:02;4.63;;;3.57;;
1020;SDS011;499;42.648;23.270;2024-02-23T16:53:01;6.07;;;4.07;;
1020;SDS011;499;42.648;23.270;2024-02-23T16:56:10;4.93;;;4.30;;
1020;SDS011;499;42.648;23.270;2024-02-23T16:59:11;6.17;;;4.37;;
1020;SDS011;499;42.648;23.270;2024-02-23T17:02:27;4.43;;;3.73;;
1020;SDS011;499;42.648;23.270;2024-02-23T17:05:17;4.17;;;3.20;;
1020;SDS011;499;42.648;23.270;2024-02-23T17:08:28;5.83;;;3.90;;
1020;SDS011;499;42.648;23.270;2024-02-23T17:11:32;4.10;;;3.00;;
1020;SDS011;499;42.648;23.270;2024-02-23T17:14:38;4.73;;;3.83;;
1020;SDS011;499;42.648;23.270;2024-02-23T17:17:46;4.30;;;3.90;;
1020;SDS011;499;42.648;23.270;2024-02-23T17:20:44;5.07;;;4.10;;
1020;SDS011;499;42.648;23.270;2024-02-23T17:23:45;4.83;;;4.33;;
1020;SDS011;499;42.648;23.270;2024-02-23T17:26:31;4.80;;;4.27;;
1020;SDS011;499;42.648;23.270;2024-02-23T17:29:41;5.93;;;4.43;;
1020;SDS011;499;42.648;23.270;2024-02-23T17:32:33;5.30;;;4.07;;
1020;SDS011;499;42.648;23.270;2024-02-23T17:35:07;7.03;;;4.53;;
1020;SDS011;499;42.648;23.270;2024-02-23T17:38:26;5.47;;;4.10;;
1020;SDS011;499;42.648;23.270;2024-02-23T17:41:31;7.40;;;5.50;;
1020;SDS011;499;42.648;23.270;2024-02-23T17:44:31;4.60;;;4.10;;
1020;SDS011;499;42.648;23.270;2024-02-23T17:47:04;4.90;;;4.17;;
1020;SDS011;499;42.648;23.270;2024-02-23T17:49:38;4.53;;;3.80;;
1020;SDS011;499;42.648;23.270;2024-02-23T17:52:26;5.10;;;3.87;;
1020;SDS011;499;42.648;23.270;2024-02-23T17:55:58;6.83;;;5.47;;
1020;SDS011;499;42.648;23.270;2024-02-23T17:58:33;4.30;;;3.90;;
1020;SDS011;499;42.648;23.270;2024-02-23T18:04:38;5.40;;;4.37;;
1020;SDS011;499;42.648;23.270;2024-02-23T18:07:58;7.67;;;4.93;;
1020;SDS011;499;42.648;23.270;2024-02-23T18:10:59;6.90;;;4.40;;
1020;SDS011;499;42.648;23.270;2024-02-23T18:13:34;6.93;;;5.17;;
1020;SDS011;499;42.648;23.270;2024-02-23T18:16:43;5.17;;;4.20;;
1020;SDS011;499;42.648;23.270;2024-02-23T18:26:33;6.03;;;4.33;;
1020;SDS011;499;42.648;23.270;2024-02-23T18:29:51;3.87;;;3.47;;
1020;SDS011;499;42.648;23.270;2024-02-23T18:32:35;4.30;;;3.63;;
1020;SDS011;499;42.648;23.270;2024-02-23T18:36:06;5.20;;;4.20;;
1020;SDS011;499;42.648;23.270;2024-02-23T18:46:49;5.73;;;3.43;;
1020;SDS011;499;42.648;23.270;2024-02-23T18:50:02;4.13;;;3.70;;
1020;SDS011;499;42.648;23.270;2024-02-23T18:53:07;5.30;;;4.00;;
1020;SDS011;499;42.648;23.270;2024-02-23T18:55:52;5.57;;;3.43;;
1020;SDS011;499;42.648;23.270;2024-02-23T18:58:57;4.80;;;3.93;;
1020;SDS011;499;42.648;23.270;2024-02-23T19:01:51;5.30;;;3.80;;
1020;SDS011;499;42.648;23.270;2024-02-23T19:04:21;4.40;;;3.90;;
1020;SDS011;499;42.648;23.270;2024-02-23T19:07:50;4.43;;;3.23;;
1020;SDS011;499;42.648;23.270;2024-02-23T19:11:08;4.30;;;3.60;;
1020;SDS011;499;42.648;23.270;2024-02-23T19:14:16;5.57;;;3.83;;
1020;SDS011;499;42.648;23.270;2024-02-23T19:21:25;4.53;;;3.80;;
1020;SDS011;499;42.648;23.270;2024-02-23T19:24:59;3.50;;;3.20;;
1020;SDS011;499;42.648;23.270;2024-02-23T19:28:26;5.30;;;4.03;;
1020;SDS011;499;42.648;23.270;2024-02-23T19:30:58;3.80;;;3.33;;
1020;SDS011;499;42.648;23.270;2024-02-23T19:34:04;6.40;;;3.63;;
1020;SDS011;499;42.648;23.270;2024-02-23T19:37:12;3.63;;;3.13;;
1020;SDS011;499;42.648;23.270;2024-02-23T19:40:22;4.03;;;3.43;;
1020;SDS011;499;42.648;23.270;2024-02-23T19:43:46;3.80;;;3.30;;
1020;SDS011;499;42.648;23.270;2024-02-23T19:46:57;3.40;;;3.07;;
1020;SDS011;499;42.648;23.270;2024-02-23T19:49:27;5.10;;;4.43;;
1020;SDS011;499;42.648;23.270;2024-02-23T19:52:30;3.33;;;2.80;;
1020;SDS011;499;42.648;23.270;2024-02-23T19:55:55;8.50;;;5.83;;
1020;SDS011;499;42.648;23.270;2024-02-23T19:59:25;5.60;;;3.93;;
1020;SDS011;499;42.648;23.270;2024-02-23T20:03:02;6.67;;;5.33;;
1020;SDS011;499;42.648;23.270;2024-02-23T20:06:21;6.87;;;5.53;;
1020;SDS011;499;42.648;23.270;2024-02-23T20:09:30;4.13;;;3.17;;
1020;SDS011;499;42.648;23.270;2024-02-23T20:12:45;6.70;;;4.63;;
1020;SDS011;499;42.648;23.270;2024-02-23T20:15:24;4.13;;;3.67;;
1020;SDS011;499;42.648;23.270;2024-02-23T20:18:46;4.53;;;3.80;;
1020;SDS011;499;42.648;23.270;2024-02-23T20:21:45;4.30;;;3.60;;
1020;SDS011;499;42.648;23.270;2024-02-23T20:28:28;3.80;;;2.83;;
1020;SDS011;499;42.648;23.270;2024-02-23T20:32:00;5.90;;;4.17;;
1020;SDS011;499;42.648;23.270;2024-02-23T20:35:30;3.43;;;2.90;;
1020;SDS011;499;42.648;23.270;2024-02-23T20:38:45;4.30;;;3.20;;
1020;SDS011;499;42.648;23.270;2024-02-23T20:41:49;5.10;;;2.40;;
1020;SDS011;499;42.648;23.270;2024-02-23T20:48:23;3.90;;;2.80;;
1020;SDS011;499;42.648;23.270;2024-02-23T20:51:21;3.23;;;2.93;;
1020;SDS011;499;42.648;23.270;2024-02-23T20:54:21;3.23;;;2.37;;
1020;SDS011;499;42.648;23.270;2024-02-23T20:57:31;3.00;;;2.40;;
1020;SDS011;499;42.648;23.270;2024-02-23T21:06:24;3.67;;;3.00;;
1020;SDS011;499;42.648;23.270;2024-02-23T21:09:35;4.20;;;2.77;;
1020;SDS011;499;42.648;23.270;2024-02-23T21:12:49;3.00;;;2.63;;
1020;SDS011;499;42.648;23.270;2024-02-23T21:15:57;2.60;;;2.23;;
1020;SDS011;499;42.648;23.270;2024-02-23T21:22:21;2.40;;;2.20;;
1020;SDS011;499;42.648;23.270;2024-02-23T21:25:41;3.23;;;2.33;;
1020;SDS011;499;42.648;23.270;2024-02-23T21:28:38;4.33;;;3.00;;
1020;SDS011;499;42.648;23.270;2024-02-23T21:31:40;3.63;;;2.50;;
1020;SDS011;499;42.648;23.270;2024-02-23T21:34:35;3.00;;;2.37;;
1020;SDS011;499;42.648;23.270;2024-02-23T21:37:43;3.30;;;2.57;;
1020;SDS011;499;42.648;23.270;2024-02-23T21:40:34;3.20;;;2.70;;
1020;SDS011;499;42.648;23.270;2024-02-23T21:43:27;2.63;;;2.37;;
1020;SDS011;499;42.648;23.270;2024-02-23T21:46:15;3.00;;;2.70;;
1020;SDS011;499;42.648;23.270;2024-02-23T21:49:14;2.73;;;2.13;;